createdAt,value
2023-03-29T05:01:39.597Z,96.60
2023-03-29T05:06:43.339Z,96.70
2023-03-29T05:11:47.453Z,96.80
2023-03-29T05:16:53.051Z,96.90
2023-03-29T05:21:57.638Z,97.10
2023-03-29T05:27:02.472Z,97.60
2023-03-29T05:32:08.468Z,98.00
2023-03-29T05:37:13.434Z,98.50
2023-03-29T05:42:22.423Z,98.70
2023-03-29T05:47:28.493Z,99.00
2023-03-29T05:52:32.246Z,99.10
2023-03-29T05:57:37.499Z,99.20
2023-03-29T06:02:43.891Z,99.20
2023-03-29T06:07:49.195Z,99.30
2023-03-29T06:12:54.564Z,99.60
2023-03-29T06:18:01.222Z,99.60
2023-03-29T06:23:05.117Z,99.50
2023-03-29T06:28:08.871Z,99.50
2023-03-29T06:33:14.268Z,99.50
2023-03-29T06:38:20.827Z,99.60
2023-03-29T06:43:27.269Z,99.60
2023-03-29T06:48:32.666Z,99.50
2023-03-29T06:53:36.722Z,99.30
2023-03-29T06:58:40.839Z,98.90
2023-03-29T07:03:47.367Z,98.40
2023-03-29T07:08:55.302Z,98.10
2023-03-29T07:14:02.045Z,97.90
2023-03-29T07:19:08.902Z,97.60
2023-03-29T07:24:13.651Z,97.70
2023-03-29T07:29:18.037Z,97.20
2023-03-29T07:34:24.430Z,97.20
2023-03-29T07:39:28.327Z,97.00
2023-03-29T07:44:36.060Z,97.00
2023-03-29T07:49:41.795Z,96.90
2023-03-29T07:54:45.807Z,96.50
2023-03-29T07:59:53.324Z,95.90
2023-03-29T08:04:59.157Z,95.90
2023-03-29T08:10:06.929Z,95.50
2023-03-29T08:15:13.286Z,95.20
2023-03-29T08:20:19.229Z,94.90
2023-03-29T08:25:23.244Z,94.70
2023-03-29T08:30:28.458Z,94.40
2023-03-29T08:35:34.181Z,94.00
2023-03-29T08:40:39.214Z,93.40
2023-03-29T08:45:54.207Z,92.90
2023-03-29T08:51:04.181Z,92.60
2023-03-29T08:56:12.284Z,92.20
2023-03-29T09:01:20.293Z,91.60
2023-03-29T09:06:26.097Z,91.00
2023-03-29T09:11:44.150Z,90.70
2023-03-29T09:16:56.768Z,90.30
2023-03-29T09:22:10.268Z,89.00
2023-03-29T09:27:19.671Z,87.90
2023-03-29T09:32:28.546Z,86.00
2023-03-29T09:37:37.824Z,84.00
2023-03-29T09:42:42.372Z,82.80
2023-03-29T09:47:50.445Z,81.80
2023-03-29T09:52:55.667Z,81.00
2023-03-29T09:58:02.148Z,80.00
2023-03-29T10:03:10.058Z,79.40
2023-03-29T10:08:20.893Z,78.70
2023-03-29T10:13:30.633Z,78.00
2023-03-29T10:18:40.063Z,77.30
2023-03-29T10:23:45.476Z,76.00
2023-03-29T10:28:49.454Z,75.10
2023-03-29T10:33:54.606Z,74.40
2023-03-29T10:39:04.279Z,73.60
2023-03-29T10:44:27.183Z,72.80
2023-03-29T10:49:30.885Z,72.00
2023-03-29T10:54:36.696Z,71.60
2023-03-29T10:59:53.087Z,70.70
2023-03-29T11:05:07.201Z,70.00
2023-03-29T11:10:28.835Z,69.20
2023-03-29T11:15:43.375Z,67.90
2023-03-29T11:20:54.979Z,66.60
2023-03-29T11:26:09.740Z,65.30
2023-03-29T11:31:23.712Z,65.20
2023-03-29T11:36:36.068Z,64.20
2023-03-29T11:41:44.941Z,63.30
2023-03-29T11:46:53.082Z,62.80
2023-03-29T11:52:04.304Z,61.80
2023-03-29T11:57:15.520Z,60.60
2023-03-29T12:02:27.408Z,59.30
2023-03-29T12:07:33.372Z,58.30
2023-03-29T12:12:45.837Z,57.90
2023-03-29T12:17:55.876Z,56.60
2023-03-29T12:23:00.721Z,55.90
2023-03-29T12:28:29.636Z,54.40
2023-03-29T12:34:13.305Z,53.60
2023-03-29T12:39:21.601Z,52.10
2023-03-29T12:44:34.298Z,51.70
2023-03-29T12:49:40.159Z,50.90
2023-03-29T12:54:54.821Z,50.20
2023-03-29T13:00:13.239Z,49.40
2023-03-29T13:05:33.607Z,48.70
2023-03-29T13:10:41.302Z,47.60
2023-03-29T13:15:46.837Z,46.30
2023-03-29T13:20:59.844Z,45.70
2023-03-29T13:26:42.716Z,44.60
2023-03-29T13:31:56.165Z,44.20
2023-03-29T13:37:10.057Z,44.00
2023-03-29T13:42:26.483Z,44.00
2023-03-29T13:47:48.901Z,43.40
2023-03-29T13:53:10.680Z,42.90
2023-03-29T13:58:19.325Z,41.90
2023-03-29T14:03:29.915Z,41.20
2023-03-29T14:08:40.127Z,41.00
2023-03-29T14:13:44.481Z,41.30
2023-03-29T14:18:51.501Z,41.10
2023-03-29T14:23:57.143Z,40.70
2023-03-29T14:29:02.314Z,40.70
2023-03-29T14:34:11.805Z,41.00
2023-03-29T14:39:18.879Z,40.80
2023-03-29T14:44:24.955Z,40.90
2023-03-29T14:49:30.401Z,40.90
2023-03-29T14:54:36.173Z,41.00
2023-03-29T14:59:42.832Z,41.20
2023-03-29T15:04:56.687Z,41.40
2023-03-29T15:10:02.282Z,41.60
2023-03-29T15:15:07.860Z,42.10
2023-03-29T15:20:21.418Z,42.60
2023-03-29T15:25:28.289Z,43.00
2023-03-29T15:30:37.079Z,43.30
2023-03-29T15:35:42.628Z,43.60
2023-03-29T15:40:46.415Z,44.00
2023-03-29T15:45:50.080Z,44.40
2023-03-29T15:50:56.196Z,44.80
2023-03-29T15:56:03.776Z,45.20
2023-03-29T16:01:16.026Z,45.40
2023-03-29T16:06:22.324Z,45.70
2023-03-29T16:11:27.090Z,45.90
2023-03-29T16:16:30.637Z,46.20
2023-03-29T16:21:36.819Z,46.50
2023-03-29T16:26:40.733Z,47.20
2023-03-29T16:31:44.313Z,47.00
2023-03-29T16:36:49.874Z,47.10
2023-03-29T16:41:53.521Z,47.30
2023-03-29T16:46:58.091Z,47.50
2023-03-29T16:52:02.824Z,47.80
2023-03-29T16:57:07.143Z,48.30
2023-03-29T17:02:11.924Z,48.90
2023-03-29T17:07:16.876Z,49.30
2023-03-29T17:12:21.339Z,49.50
2023-03-29T17:17:24.759Z,49.50
2023-03-29T17:22:30.741Z,49.50
2023-03-29T17:27:34.775Z,49.80
2023-03-29T17:32:39.871Z,50.50
2023-03-29T17:37:45.227Z,51.90
2023-03-29T17:42:48.965Z,52.80
2023-03-29T17:47:52.580Z,53.60
2023-03-29T17:52:57.647Z,54.10
2023-03-29T17:58:01.479Z,54.60
2023-03-29T18:03:05.295Z,55.50
2023-03-29T18:08:10.215Z,56.10
2023-03-29T18:13:14.725Z,56.60
2023-03-29T18:18:18.009Z,57.50
2023-03-29T18:23:22.947Z,58.40
2023-03-29T18:28:27.076Z,58.80
2023-03-29T18:33:35.185Z,59.70
2023-03-29T18:38:40.451Z,60.20
2023-03-29T18:43:44.312Z,60.70
2023-03-29T18:48:48.396Z,61.30
2023-03-29T18:53:54.276Z,62.30
2023-03-29T18:58:58.212Z,62.90
2023-03-29T19:04:01.941Z,62.90
2023-03-29T19:09:06.990Z,63.00
2023-03-29T19:14:10.553Z,63.30
2023-03-29T19:19:14.069Z,63.80
2023-03-29T19:24:19.093Z,64.10
2023-03-29T19:29:22.634Z,64.40
2023-03-29T19:34:27.120Z,64.80
2023-03-29T19:39:32.079Z,65.30
2023-03-29T19:44:38.170Z,65.50
2023-03-29T19:49:41.932Z,65.50
2023-03-29T19:54:47.424Z,66.30
2023-03-29T19:59:50.960Z,66.70
2023-03-29T20:04:55.200Z,67.60
2023-03-29T20:10:00.140Z,67.90
2023-03-29T20:15:03.886Z,68.50
2023-03-29T20:20:10.355Z,69.00
2023-03-29T20:25:15.483Z,69.30
2023-03-29T20:30:19.094Z,69.60
2023-03-29T20:35:22.645Z,70.40
2023-03-29T20:40:29.908Z,71.10
2023-03-29T20:45:42.917Z,72.20
2023-03-29T20:50:55.393Z,73.10
2023-03-29T20:56:00.607Z,73.80
2023-03-29T21:01:04.550Z,74.70
2023-03-29T21:06:09.530Z,75.70
2023-03-29T21:11:15.971Z,76.70
2023-03-29T21:16:20.491Z,77.70
2023-03-29T21:21:23.870Z,78.30
2023-03-29T21:26:28.775Z,79.30
2023-03-29T21:31:32.471Z,80.20
2023-03-29T21:36:36.521Z,80.70
2023-03-29T21:41:41.535Z,81.40
2023-03-29T21:46:45.255Z,82.20
2023-03-29T21:51:48.885Z,82.70
2023-03-29T21:56:53.909Z,83.40
2023-03-29T22:01:57.569Z,83.70
2023-03-29T22:07:02.654Z,84.40
2023-03-29T22:12:08.215Z,84.80
2023-03-29T22:17:12.037Z,84.80
2023-03-29T22:22:16.369Z,85.50
2023-03-29T22:27:21.554Z,86.00
